Time;durP1;ratioP1;P1;durP2;ratioP2;P2;SDS_P1;SDS_P2;PMS_P1;PMS_P2;Temp;Humidity;BMP_temperature;BMP_pressure;BME280_temperature;BME280_humidity;BME280_pressure;Samples;Min_cycle;Max_cycle;Signal;HPM_P1;HPM_P2
2022/09/30 00:00:13;;;;;;;7.13;4.40;;;;;;;9.75;62.05;100024.81;6098355;23;20222;-32
2022/09/30 00:02:39;;;;;;;6.78;4.35;;;;;;;9.73;62.07;100029.22;6124228;23;20242;-32
2022/09/30 00:05:04;;;;;;;7.90;4.33;;;;;;;9.70;62.10;100038.03;6121820;23;20002;-32
2022/09/30 00:07:29;;;;;;;6.28;4.40;;;;;;;9.67;61.97;100043.34;6073177;23;20238;-32
2022/09/30 00:09:56;;;;;;;8.47;5.77;;;;;;;9.60;62.18;100032.06;6123964;23;20056;-32
2022/09/30 00:12:22;;;;;;;7.88;4.50;;;;;;;9.58;61.91;100039.13;6124580;23;20233;-32
2022/09/30 00:14:47;;;;;;;7.43;4.75;;;;;;;9.56;62.06;100043.53;6121338;23;20362;-32
2022/09/30 00:17:12;;;;;;;8.98;5.40;;;;;;;9.52;62.10;100044.47;6125445;23;20015;-32
2022/09/30 00:19:38;;;;;;;8.97;5.00;;;;;;;9.50;61.98;100046.25;6125434;23;20446;-32
2022/09/30 00:22:03;;;;;;;7.25;4.75;;;;;;;9.47;62.19;100049.78;6126616;23;20640;-32
2022/09/30 00:24:28;;;;;;;8.00;4.67;;;;;;;9.44;62.12;100047.19;6125560;23;20002;-32
2022/09/30 00:26:54;;;;;;;7.20;4.90;;;;;;;9.41;62.03;100044.63;6125696;23;20230;-32
2022/09/30 00:29:19;;;;;;;8.73;4.60;;;;;;;9.39;61.94;100045.53;6126051;23;20002;-32
2022/09/30 00:31:44;;;;;;;8.88;4.88;;;;;;;9.35;62.09;100047.34;6125503;23;20249;-32
2022/09/30 00:34:11;;;;;;;9.43;5.70;;;;;;;9.33;62.09;100043.84;6125873;23;20012;-32
2022/09/30 00:36:44;;;;;;;11.45;5.93;;;;;;;9.26;62.10;100043.06;6126431;23;20014;-32
2022/09/30 00:39:15;;;;;;;11.63;5.55;;;;;;;9.25;62.06;100049.22;6124115;23;20411;-32
2022/09/30 00:41:42;;;;;;;11.73;5.22;;;;;;;9.22;62.04;100047.53;6100280;23;20010;-32
2022/09/30 00:44:43;;;;;;;12.90;6.25;;;;;;;9.21;62.00;100055.44;6123509;23;20013;-32
2022/09/30 00:47:37;;;;;;;14.65;6.47;;;;;;;9.17;61.98;100051.09;6126070;23;20027;-32
2022/09/30 00:50:32;;;;;;;10.80;6.20;;;;;;;9.14;62.10;100053.78;6123602;23;20005;-32
2022/09/30 00:52:59;;;;;;;13.00;6.70;;;;;;;9.08;61.91;100055.59;6125479;23;20010;-32
2022/09/30 00:55:30;;;;;;;11.77;6.80;;;;;;;9.07;61.85;100060.88;6098346;23;20013;-32
2022/09/30 00:57:58;;;;;;;11.02;6.22;;;;;;;9.04;62.11;100053.88;6075441;23;20088;-32
2022/09/30 01:00:23;;;;;;;10.13;6.38;;;;;;;9.00;62.01;100061.84;6097826;23;20426;-32
2022/09/30 01:02:49;;;;;;;11.18;5.40;;;;;;;8.97;62.09;100058.34;6125305;23;20009;-32
2022/09/30 01:05:14;;;;;;;10.20;6.00;;;;;;;8.95;62.02;100048.75;6125139;23;20441;-32
2022/09/30 01:07:39;;;;;;;9.15;5.30;;;;;;;8.93;62.04;100046.13;6100112;23;20008;-32
2022/09/30 01:10:05;;;;;;;9.98;5.72;;;;;;;8.90;62.08;100045.31;6125008;23;20017;-32
2022/09/30 01:12:31;;;;;;;8.75;4.80;;;;;;;8.88;62.21;100049.69;6099323;23;20077;-32
2022/09/30 01:14:57;;;;;;;8.63;5.13;;;;;;;8.85;62.21;100047.97;6125308;23;20077;-32
2022/09/30 01:17:39;;;;;;;10.48;6.25;;;;;;;8.80;62.11;100045.41;6100289;23;20069;-32
2022/09/30 01:20:14;;;;;;;7.03;4.57;;;;;;;8.79;62.27;100055.94;6125952;23;20455;-32
2022/09/30 01:23:21;;;;;;;7.55;4.32;;;;;;;8.73;62.33;100054.25;6124970;23;20144;-32
2022/09/30 01:26:11;;;;;;;9.02;4.93;;;;;;;8.69;62.45;100048.16;6122998;23;20010;-32
2022/09/30 01:28:53;;;;;;;8.57;4.35;;;;;;;8.67;62.34;100049.06;6125904;23;20009;-32
2022/09/30 01:31:55;;;;;;;7.78;4.57;;;;;;;8.65;62.34;100045.59;6126096;23;20006;-32
2022/09/30 01:38:09;;;;;;;7.85;4.38;;;;;;;8.56;62.48;100052.69;6123751;23;20104;-32
2022/09/30 01:41:23;;;;;;;6.95;4.38;;;;;;;8.54;62.49;100054.44;6124767;23;20037;-32
2022/09/30 01:44:30;;;;;;;6.82;4.80;;;;;;;8.49;62.53;100045.72;6060658;23;20008;-32
2022/09/30 01:47:11;;;;;;;7.70;4.57;;;;;;;8.46;62.61;100061.50;6118139;23;20420;-32
2022/09/30 01:49:42;;;;;;;7.80;4.30;;;;;;;8.43;62.50;100061.53;6099231;23;20315;-32
2022/09/30 01:54:46;;;;;;;7.70;5.05;;;;;;;8.37;62.56;100066.88;6154706;23;20024;-37
2022/09/30 01:57:31;;;;;;;7.72;5.10;;;;;;;8.34;62.67;100066.00;6156004;23;20341;-37
2022/09/30 02:00:08;;;;;;;7.80;5.30;;;;;;;8.32;62.78;100061.66;6128630;23;20002;-36
2022/09/30 02:02:47;;;;;;;7.22;4.75;;;;;;;8.29;62.70;100059.94;6075631;23;20013;-37
2022/09/30 02:05:34;;;;;;;6.57;4.28;;;;;;;8.28;62.81;100068.72;6125476;23;20052;-36
2022/09/30 02:08:21;;;;;;;8.20;5.13;;;;;;;8.26;62.87;100070.47;6099339;23;20005;-37
2022/09/30 02:10:52;;;;;;;7.65;4.43;;;;;;;8.25;62.96;100070.47;6099102;23;20012;-37
2022/09/30 02:13:45;;;;;;;7.95;4.78;;;;;;;8.21;63.10;100072.28;6098137;23;20010;-37
2022/09/30 02:16:14;;;;;;;8.05;4.68;;;;;;;8.21;63.03;100080.16;6091569;23;20436;-36
2022/09/30 02:18:51;;;;;;;7.55;4.95;;;;;;;8.17;63.17;100081.06;6075259;23;20002;-37
2022/09/30 02:21:22;;;;;;;5.90;4.68;;;;;;;8.15;62.91;100077.56;6124031;23;20001;-37
2022/09/30 02:23:51;;;;;;;6.68;4.22;;;;;;;8.11;62.69;100075.84;6125061;23;20005;-37
2022/09/30 02:26:19;;;;;;;6.57;4.35;;;;;;;8.08;62.79;100082.88;6099074;23;20018;-37
2022/09/30 02:28:50;;;;;;;6.43;4.45;;;;;;;8.05;62.81;100088.16;6098165;23;20080;-37
2022/09/30 02:31:17;;;;;;;5.93;4.28;;;;;;;8.03;62.88;100087.28;6125460;23;20036;-37
2022/09/30 02:33:47;;;;;;;7.07;4.45;;;;;;;8.02;62.87;100089.94;6099453;23;20002;-37
2022/09/30 02:36:27;;;;;;;7.13;4.35;;;;;;;7.99;62.86;100093.47;6124462;23;20048;-37
2022/09/30 02:39:05;;;;;;;6.38;4.40;;;;;;;7.99;62.90;100097.81;6124871;23;20415;-37
2022/09/30 02:41:35;;;;;;;6.63;4.30;;;;;;;7.96;62.88;100101.34;6098424;23;20030;-36
2022/09/30 02:44:01;;;;;;;7.30;4.50;;;;;;;7.93;63.01;100104.88;6099445;23;20017;-37
2022/09/30 02:46:36;;;;;;;6.93;4.63;;;;;;;7.91;62.94;100105.78;6124548;23;20137;-36
2022/09/30 02:49:07;;;;;;;7.70;4.22;;;;;;;7.90;63.08;100109.28;6124506;23;20021;-36
2022/09/30 02:52:00;;;;;;;6.90;4.45;;;;;;;7.88;62.91;100108.41;6100269;23;20313;-37
2022/09/30 02:54:50;;;;;;;6.65;4.80;;;;;;;7.83;62.84;100104.06;6125296;23;20440;-36
2022/09/30 02:57:21;;;;;;;9.95;5.15;;;;;;;7.80;63.12;100104.09;6125989;23;20013;-37
2022/09/30 02:59:50;;;;;;;10.88;6.00;;;;;;;7.78;62.93;100105.88;6125117;23;20001;-36
2022/09/30 03:02:15;;;;;;;11.15;6.68;;;;;;;7.75;62.79;100111.13;6098936;23;20006;-36
2022/09/30 03:04:44;;;;;;;15.48;6.70;;;;;;;7.72;63.09;100111.16;6125008;23;20080;-37
2022/09/30 03:07:11;;;;;;;14.98;6.60;;;;;;;7.71;63.06;100109.41;6099617;23;20014;-36
2022/09/30 03:09:36;;;;;;;12.70;6.57;;;;;;;7.69;62.80;100112.03;6123809;23;20037;-37
2022/09/30 03:12:29;;;;;;;13.23;7.07;;;;;;;7.66;62.97;100119.06;6125101;23;20080;-36
2022/09/30 03:14:54;;;;;;;13.70;6.25;;;;;;;7.65;62.76;100126.06;6124451;23;20002;-37
2022/09/30 03:17:20;;;;;;;14.90;6.53;;;;;;;7.61;63.13;100119.09;6099725;23;20014;-37
2022/09/30 03:20:33;;;;;;;14.60;7.57;;;;;;;7.57;63.20;100123.47;6127333;23;20036;-36
2022/09/30 03:23:07;;;;;;;12.90;7.18;;;;;;;7.56;63.39;100127.00;6105284;23;20033;-37
2022/09/30 03:25:52;;;;;;;11.15;5.90;;;;;;;7.54;63.33;100118.25;6075166;23;20006;-36
2022/09/30 03:28:25;;;;;;;11.68;6.05;;;;;;;7.52;63.35;100113.88;6099375;23;20009;-36
2022/09/30 03:31:00;;;;;;;10.80;5.22;;;;;;;7.51;63.32;100120.91;6098944;23;20014;-36
2022/09/30 03:33:37;;;;;;;10.60;5.78;;;;;;;7.49;63.13;100124.41;6125256;23;20002;-37
2022/09/30 03:36:07;;;;;;;8.48;5.35;;;;;;;7.46;62.87;100124.44;6097564;23;20006;-36
2022/09/30 03:38:54;;;;;;;8.68;5.07;;;;;;;7.44;63.05;100138.41;6124866;23;20006;-36
2022/09/30 03:41:46;;;;;;;9.05;5.72;;;;;;;7.41;63.26;100137.56;6098515;23;20009;-37
2022/09/30 03:44:17;;;;;;;9.38;5.13;;;;;;;7.38;63.40;100146.34;6124558;23;19998;-37
2022/09/30 03:46:56;;;;;;;8.73;5.30;;;;;;;7.37;63.11;100151.59;6124469;23;20033;-37
2022/09/30 03:49:29;;;;;;;9.52;5.03;;;;;;;7.35;63.25;100150.69;6099477;23;20088;-38
2022/09/30 03:51:55;;;;;;;8.43;4.75;;;;;;;7.30;63.30;100148.97;6098373;23;20010;-37
2022/09/30 03:54:21;;;;;;;9.55;6.20;;;;;;;7.29;63.32;100157.72;6125689;23;20464;-38
2022/09/30 03:56:47;;;;;;;8.82;5.20;;;;;;;7.27;63.00;100148.13;6101338;23;20032;-38
2022/09/30 03:59:31;;;;;;;9.77;5.93;;;;;;;7.23;63.14;100149.88;6100369;23;20437;-38
2022/09/30 04:01:56;;;;;;;9.80;4.90;;;;;;;7.22;63.44;100158.63;6126883;23;20005;-38
2022/09/30 04:04:22;;;;;;;8.80;4.88;;;;;;;7.19;63.52;100156.00;6125132;23;20008;-37
2022/09/30 04:06:47;;;;;;;8.80;4.45;;;;;;;7.16;63.66;100169.13;6127112;23;20025;-38
2022/09/30 04:09:28;;;;;;;8.60;4.65;;;;;;;7.14;63.41;100171.75;6129191;23;20068;-37
2022/09/30 04:11:53;;;;;;;7.15;4.22;;;;;;;7.12;63.84;100167.41;6126946;23;20064;-37
2022/09/30 04:14:18;;;;;;;8.48;5.13;;;;;;;7.09;63.55;100162.16;6099569;23;20077;-37
2022/09/30 04:16:44;;;;;;;8.97;5.20;;;;;;;7.06;63.69;100163.91;6124751;23;20010;-37
2022/09/30 04:19:09;;;;;;;10.05;5.25;;;;;;;7.03;63.42;100161.31;6126000;23;20234;-37
2022/09/30 04:21:34;;;;;;;7.55;4.72;;;;;;;7.02;63.24;100162.19;6123438;23;20104;-37
2022/09/30 04:24:00;;;;;;;8.68;4.93;;;;;;;7.00;63.62;100174.41;6126051;23;20006;-37
2022/09/30 04:26:25;;;;;;;8.63;5.05;;;;;;;6.99;63.50;100170.06;6125170;23;20010;-37
2022/09/30 04:28:52;;;;;;;7.82;4.80;;;;;;;6.96;63.44;100170.06;6124872;23;20006;-37
2022/09/30 04:31:20;;;;;;;7.25;4.97;;;;;;;6.94;63.47;100174.44;6095480;23;20449;-37
2022/09/30 04:33:46;;;;;;;8.02;4.70;;;;;;;6.90;64.00;100177.94;6099201;23;20453;-37
2022/09/30 04:36:12;;;;;;;7.22;4.10;;;;;;;6.89;63.40;100184.94;6124957;23;20019;-36
2022/09/30 04:38:38;;;;;;;6.43;4.53;;;;;;;6.87;63.82;100186.66;6124255;23;20430;-36
2022/09/30 04:41:05;;;;;;;7.95;4.82;;;;;;;6.86;63.78;100194.53;6125594;23;20693;-36
2022/09/30 04:43:33;;;;;;;7.63;5.00;;;;;;;6.85;63.48;100195.41;6100658;23;20517;-36
2022/09/30 04:45:59;;;;;;;5.90;4.10;;;;;;;6.82;63.98;100195.41;6125880;23;20683;-36
2022/09/30 04:48:26;;;;;;;6.13;4.90;;;;;;;6.79;63.50;100198.94;6126494;23;20029;-37
2022/09/30 04:50:52;;;;;;;8.10;4.57;;;;;;;6.76;63.54;100185.81;6123940;23;20001;-36
2022/09/30 04:53:18;;;;;;;6.57;4.78;;;;;;;6.77;63.44;100191.06;6097781;23;20014;-36
2022/09/30 04:55:44;;;;;;;9.23;5.65;;;;;;;6.78;63.85;100189.31;6100153;23;20077;-37
2022/09/30 04:58:10;;;;;;;8.43;5.30;;;;;;;6.79;63.95;100196.31;6126837;23;20399;-36
2022/09/30 05:00:36;;;;;;;8.27;5.05;;;;;;;6.75;63.60;100195.44;6126220;23;20002;-37
2022/09/30 05:03:03;;;;;;;8.63;5.38;;;;;;;6.75;63.64;100205.03;6098953;23;20060;-37
2022/09/30 05:05:28;;;;;;;7.97;5.28;;;;;;;6.72;63.82;100198.06;6099359;23;20005;-37
2022/09/30 05:08:01;;;;;;;6.70;4.68;;;;;;;6.71;63.76;100208.53;6099334;23;20013;-37
2022/09/30 05:10:26;;;;;;;7.13;4.95;;;;;;;6.68;63.72;100201.56;6100938;23;20064;-37
2022/09/30 05:12:52;;;;;;;6.03;4.80;;;;;;;6.67;63.41;100202.44;6123761;23;20006;-37
2022/09/30 05:15:18;;;;;;;7.15;5.05;;;;;;;6.64;63.84;100208.53;6122838;23;20001;-35
2022/09/30 05:17:43;;;;;;;6.55;4.53;;;;;;;6.62;63.50;100212.03;6098119;23;20013;-37
2022/09/30 05:20:11;;;;;;;7.38;4.75;;;;;;;6.61;63.89;100216.44;6124737;23;20418;-35
2022/09/30 05:22:37;;;;;;;7.35;5.30;;;;;;;6.60;63.94;100224.28;6125139;23;20440;-35
2022/09/30 05:25:03;;;;;;;7.65;4.63;;;;;;;6.58;63.50;100226.00;6098288;23;20001;-35
2022/09/30 05:27:29;;;;;;;7.03;4.75;;;;;;;6.56;64.10;100227.78;6073748;23;20081;-37
2022/09/30 05:29:54;;;;;;;7.85;4.90;;;;;;;6.55;63.91;100240.00;6125673;23;20022;-37
2022/09/30 05:32:20;;;;;;;6.43;4.40;;;;;;;6.53;63.51;100232.13;6127044;23;20381;-37
2022/09/30 05:34:46;;;;;;;6.63;4.43;;;;;;;6.52;64.04;100224.25;6100358;23;20368;-36
2022/09/30 05:37:11;;;;;;;9.25;4.90;;;;;;;6.48;63.58;100233.00;6128088;23;20006;-37
2022/09/30 05:39:36;;;;;;;5.82;4.30;;;;;;;6.46;64.19;100230.38;6126247;23;20002;-35
2022/09/30 05:42:02;;;;;;;6.80;4.65;;;;;;;6.46;63.95;100238.25;6126041;23;20029;-37
2022/09/30 05:44:27;;;;;;;5.57;4.55;;;;;;;6.44;64.15;100236.50;6126885;23;20489;-37
2022/09/30 05:46:53;;;;;;;6.18;4.05;;;;;;;6.41;64.11;100232.13;6125170;23;20010;-36
2022/09/30 05:49:19;;;;;;;7.47;4.50;;;;;;;6.40;64.51;100235.59;6101444;23;20460;-37
2022/09/30 05:51:45;;;;;;;6.65;4.70;;;;;;;6.37;64.51;100241.72;6127481;23;20009;-35
2022/09/30 05:54:11;;;;;;;7.10;4.60;;;;;;;6.36;64.64;100244.31;6126475;23;20006;-35
2022/09/30 05:56:37;;;;;;;6.00;4.00;;;;;;;6.36;64.25;100255.69;6125106;23;20002;-35
2022/09/30 05:59:05;;;;;;;6.95;4.10;;;;;;;6.36;64.32;100263.56;6125379;23;20006;-36
2022/09/30 06:01:31;;;;;;;6.80;4.70;;;;;;;6.35;64.88;100269.66;6124306;23;20012;-35
2022/09/30 06:03:56;;;;;;;6.55;4.40;;;;;;;6.35;65.00;100271.41;6099075;23;20021;-35
2022/09/30 06:06:22;;;;;;;6.97;5.00;;;;;;;6.35;64.97;100276.66;6125668;23;20002;-36
2022/09/30 06:08:48;;;;;;;6.32;4.20;;;;;;;6.35;64.70;100279.25;6099389;23;20382;-35
2022/09/30 06:11:17;;;;;;;6.80;4.93;;;;;;;6.35;65.06;100274.03;6074923;23;20009;-36
2022/09/30 06:13:47;;;;;;;6.57;4.20;;;;;;;6.33;64.83;100281.03;6098671;23;20002;-35
2022/09/30 06:16:13;;;;;;;6.65;4.38;;;;;;;6.31;65.21;100285.38;6124869;23;20429;-35
2022/09/30 06:18:40;;;;;;;7.28;4.32;;;;;;;6.31;65.07;100282.75;6099279;23;20001;-35
2022/09/30 06:21:07;;;;;;;5.82;3.78;;;;;;;6.31;65.11;100293.22;6099458;23;20460;-37
2022/09/30 06:23:35;;;;;;;6.75;4.63;;;;;;;6.31;65.32;100282.75;6125275;23;20520;-37
2022/09/30 06:30:02;;;;;;;5.90;4.05;;;;;;;6.34;65.16;100282.75;6036288;23;20022;-35
2022/09/30 06:36:22;;;;;;;7.95;5.75;;;;;;;6.33;65.55;100286.25;6002782;23;20014;-36
2022/09/30 06:39:55;;;;;;;8.32;5.10;;;;;;;6.33;65.51;100287.13;5978919;24;20091;-36
2022/09/30 06:43:33;;;;;;;7.93;5.13;;;;;;;6.40;66.41;100288.00;5924098;24;20189;-37
2022/09/30 06:46:49;;;;;;;9.10;6.10;;;;;;;6.44;65.79;100294.13;5924335;24;20033;-37
2022/09/30 06:49:59;;;;;;;7.68;5.93;;;;;;;6.48;66.17;100291.53;5933793;24;20020;-37
2022/09/30 06:53:01;;;;;;;9.35;6.47;;;;;;;6.54;66.97;100290.66;5945707;24;20108;-37
2022/09/30 06:56:30;;;;;;;8.60;5.90;;;;;;;6.58;66.51;100296.78;5924334;24;20434;-36
2022/09/30 07:00:02;;;;;;;7.63;5.43;;;;;;;6.61;67.09;100309.88;5899752;23;20478;-36
2022/09/30 07:03:19;;;;;;;8.18;5.38;;;;;;;6.64;66.54;100302.03;6006366;23;20004;-36
2022/09/30 07:13:09;;;;;;;8.57;5.35;;;;;;;6.83;67.63;100309.91;6007774;23;20015;-37
2022/09/30 07:16:38;;;;;;;8.13;5.57;;;;;;;6.86;67.54;100302.03;5980947;23;20007;-36
2022/09/30 07:25:36;;;;;;;9.27;5.80;;;;;;;7.03;67.17;100320.38;5976932;23;20042;-37
2022/09/30 07:45:51;;;;;;;8.40;6.07;;;;;;;7.47;66.94;100352.69;5845815;24;20081;-36
2022/09/30 07:49:04;;;;;;;11.43;5.97;;;;;;;7.53;67.28;100355.31;5817594;24;20841;-37
2022/09/30 08:05:44;;;;;;;9.63;5.60;;;;;;;8.06;68.36;100370.06;6023978;23;20076;-31
2022/09/30 08:12:51;;;;;;;9.40;5.82;;;;;;;8.32;69.56;100387.47;5917054;24;20076;-31
2022/09/30 08:16:07;;;;;;;10.02;7.00;;;;;;;8.43;69.44;100383.06;5951921;24;20078;-31
2022/09/30 08:23:03;;;;;;;10.20;7.20;;;;;;;8.75;70.61;100390.78;5869054;24;20041;-31
2022/09/30 08:29:05;;;;;;;;;;;;;;;9.06;70.95;100393.22;5924435;24;20057;-31
2022/09/30 08:35:51;;;;;;;10.57;7.15;;;;;;;9.36;71.65;100381.59;5923043;24;20517;-31
2022/09/30 08:38:35;;;;;;;11.50;7.07;;;;;;;9.50;71.38;100385.84;5870550;24;20018;-31
2022/09/30 08:41:39;;;;;;;13.05;7.80;;;;;;;9.63;71.98;100391.88;5870730;24;20096;-31
2022/09/30 08:44:54;;;;;;;11.38;6.50;;;;;;;9.76;71.13;100392.63;5871484;24;20338;-31
2022/09/30 08:48:07;;;;;;;11.38;6.97;;;;;;;9.91;70.44;100395.97;5871487;24;20404;-31
2022/09/30 09:01:20;;;;;;;10.23;6.85;;;;;;;10.54;71.97;100402.31;5989676;23;19951;-31
2022/09/30 09:04:43;;;;;;;11.35;6.90;;;;;;;10.69;72.11;100398.56;6009007;23;20440;-31
2022/09/30 09:11:27;;;;;;;9.15;6.82;;;;;;;11.01;71.67;100388.44;6065617;23;20017;-31
2022/09/30 09:14:35;;;;;;;9.30;6.53;;;;;;;11.18;71.46;100389.94;6065575;23;20003;-31
2022/09/30 09:28:12;;;;;;;9.32;5.50;;;;;;;11.79;70.11;100397.69;6094722;23;19926;-32
2022/09/30 09:31:41;;;;;;;8.00;5.65;;;;;;;11.93;69.67;100400.06;6130347;23;20009;-32
2022/09/30 09:35:31;;;;;;;7.28;5.00;;;;;;;12.09;69.35;100390.09;6139865;23;20005;-32
2022/09/30 09:38:36;;;;;;;6.68;4.70;;;;;;;12.25;68.67;100390.69;6018079;23;20018;-32
2022/09/30 10:34:23;;;;;;;4.90;3.80;;;;;;;14.68;65.14;100358.91;6325149;22;20408;-34
2022/09/30 10:37:37;;;;;;;5.50;3.90;;;;;;;14.81;64.50;100354.09;6251461;23;20016;-34
2022/09/30 10:40:47;;;;;;;6.22;3.75;;;;;;;14.94;64.31;100359.91;6314093;22;20376;-34
2022/09/30 10:44:16;;;;;;;5.15;3.55;;;;;;;15.05;63.53;100359.53;6222044;23;20005;-34
2022/09/30 10:47:25;;;;;;;4.75;3.70;;;;;;;15.16;62.98;100367.13;6250755;22;20020;-34
2022/09/30 11:01:43;;;;;;;4.55;3.20;;;;;;;15.51;62.08;100355.31;6183062;23;20016;-34
2022/09/30 11:05:12;;;;;;;5.18;3.58;;;;;;;15.64;62.17;100362.88;6099315;23;20057;-34
2022/09/30 11:08:34;;;;;;;4.88;3.42;;;;;;;15.76;61.08;100357.13;6037156;23;20465;-34
2022/09/30 11:12:09;;;;;;;4.18;3.17;;;;;;;15.83;61.36;100357.75;6177089;22;20007;-35
2022/09/30 11:19:25;;;;;;;5.10;3.35;;;;;;;16.02;60.96;100352.69;6307408;22;20063;-35
2022/09/30 11:26:18;;;;;;;4.75;2.70;;;;;;;16.21;59.59;100356.44;6123331;23;20461;-35
2022/09/30 11:29:53;;;;;;;3.30;2.60;;;;;;;16.30;59.45;100356.06;6141491;23;20106;-34
2022/09/30 11:33:43;;;;;;;3.30;2.50;;;;;;;16.35;59.06;100343.47;6223274;23;20422;-35
2022/09/30 11:37:12;;;;;;;3.15;2.30;;;;;;;16.44;58.75;100352.88;6074466;23;20080;-35
2022/09/30 11:40:35;;;;;;;3.47;2.40;;;;;;;16.53;58.28;100352.53;6043410;23;20018;-34
2022/09/30 11:43:54;;;;;;;4.10;2.17;;;;;;;16.60;58.75;100339.84;6098101;23;20002;-34
2022/09/30 11:47:34;;;;;;;2.90;2.20;;;;;;;16.70;57.99;100347.47;6079475;23;20014;-35
2022/09/30 11:59:58;;;;;;;6.00;2.33;;;;;;;17.00;57.43;100345.34;6288972;22;20464;-34
2022/09/30 12:10:07;;;;;;;4.05;2.50;;;;;;;17.23;55.14;100342.66;6308014;22;20085;-35
2022/09/30 12:16:55;;;;;;;3.08;2.25;;;;;;;17.31;56.54;100346.75;6234086;23;20019;-34
2022/09/30 12:20:33;;;;;;;3.17;2.60;;;;;;;17.40;56.55;100344.59;6212904;23;20167;-35
2022/09/30 12:24:10;;;;;;;5.55;2.40;;;;;;;17.43;56.27;100348.03;6241773;23;20000;-35
2022/09/30 12:31:09;;;;;;;4.55;2.83;;;;;;;17.61;54.67;100344.63;6228946;23;20031;-35
2022/09/30 12:34:21;;;;;;;4.32;2.83;;;;;;;17.66;54.68;100348.81;6242818;23;20447;-34
2022/09/30 12:37:32;;;;;;;4.38;2.65;;;;;;;17.71;55.75;100345.97;6243618;23;20011;-34
2022/09/30 12:44:39;;;;;;;2.97;2.30;;;;;;;17.93;54.55;100340.53;6265274;22;20058;-35
2022/09/30 12:47:51;;;;;;;3.25;2.40;;;;;;;17.97;53.77;100343.91;6212797;23;20009;-34
2022/09/30 12:51:22;;;;;;;3.70;2.03;;;;;;;18.06;54.38;100346.16;6212681;23;20371;-34
2022/09/30 12:54:20;;;;;;;3.63;2.00;;;;;;;18.11;53.52;100342.44;6199610;23;20379;-35
2022/09/30 12:58:14;;;;;;;;;;;;;;;;;;;;;
2022/09/30 13:01:12;;;;;;;2.60;1.73;;;;;;;18.40;53.77;100349.09;6135691;22;20407;-34
2022/09/30 13:04:34;;;;;;;2.78;1.90;;;;;;;18.43;53.62;100346.28;6248750;22;19996;-35
2022/09/30 13:07:55;;;;;;;3.13;2.20;;;;;;;18.53;53.47;100352.03;6248400;22;20087;-35
2022/09/30 13:14:43;;;;;;;3.55;2.00;;;;;;;18.72;52.30;100351.16;6152477;23;20009;-35
2022/09/30 13:18:02;;;;;;;3.08;1.83;;;;;;;18.83;51.24;100343.50;6242265;23;20478;-34
2022/09/30 13:27:57;;;;;;;2.10;1.50;;;;;;;19.06;48.25;100362.91;6118944;23;20025;-35
2022/09/30 13:31:03;;;;;;;2.55;1.88;;;;;;;19.05;49.09;100350.44;6055756;23;20011;-35
2022/09/30 13:38:06;;;;;;;2.00;1.50;;;;;;;19.17;50.35;100346.31;6152123;23;20026;-34
2022/09/30 13:41:24;;;;;;;1.90;1.50;;;;;;;19.25;49.95;100343.25;6153956;23;20059;-34
2022/09/30 13:44:47;;;;;;;2.08;1.40;;;;;;;19.35;49.84;100335.63;6118998;23;20029;-34
2022/09/30 13:48:09;;;;;;;2.35;1.80;;;;;;;19.46;48.25;100337.72;6182004;23;20017;-34
2022/09/30 13:51:21;;;;;;;3.90;1.55;;;;;;;19.48;49.88;100335.84;6163993;23;20071;-34
2022/09/30 13:54:48;;;;;;;2.33;1.40;;;;;;;19.51;49.01;100334.84;6179622;23;20067;-34
2022/09/30 13:58:27;;;;;;;2.13;1.45;;;;;;;19.56;50.41;100339.00;6122728;23;20077;-34
2022/09/30 14:05:18;;;;;;;2.28;1.15;;;;;;;19.72;50.09;100343.53;6064147;23;20362;-34
2022/09/30 14:08:36;;;;;;;2.13;1.15;;;;;;;19.75;49.68;100344.22;6077229;23;20401;-34
2022/09/30 14:21:54;;;;;;;2.42;1.50;;;;;;;19.93;47.70;100362.06;6104843;23;20037;-34
2022/09/30 14:25:23;;;;;;;2.63;1.40;;;;;;;19.95;48.25;100360.19;6101764;23;20017;-35
2022/09/30 14:28:56;;;;;;;2.00;1.20;;;;;;;20.01;48.62;100359.88;6035791;23;20039;-35
2022/09/30 14:32:02;;;;;;;2.35;1.17;;;;;;;20.03;49.64;100360.66;5980697;24;20341;-35
2022/09/30 14:34:58;;;;;;;2.17;1.35;;;;;;;20.05;48.62;100356.09;5967850;24;20464;-35
2022/09/30 14:41:08;;;;;;;;;;;;;;;20.10;47.45;100354.03;6010085;23;20030;-35
2022/09/30 14:44:24;;;;;;;1.90;1.38;;;;;;;20.10;47.56;100351.34;6004808;23;19921;-35
2022/09/30 14:50:46;;;;;;;3.40;1.40;;;;;;;20.03;46.54;100349.94;6040535;23;20029;-35
2022/09/30 14:54:16;;;;;;;2.35;1.40;;;;;;;20.04;46.83;100345.47;6121233;23;20010;-35
2022/09/30 14:57:48;;;;;;;2.78;1.33;;;;;;;19.99;46.12;100351.03;6124049;23;20026;-35
2022/09/30 15:04:59;;;;;;;1.80;1.50;;;;;;;19.91;46.91;100334.53;6124586;23;20064;-35
2022/09/30 15:08:44;;;;;;;2.70;1.60;;;;;;;19.82;46.27;100342.09;6123592;23;20553;-35
2022/09/30 15:12:05;;;;;;;3.58;1.38;;;;;;;19.77;46.13;100335.28;6208491;22;20011;-35
2022/09/30 15:21:26;;;;;;;2.47;1.45;;;;;;;19.54;46.54;100330.16;6179551;23;20008;-35
2022/09/30 15:24:34;;;;;;;2.92;1.52;;;;;;;19.46;47.28;100338.63;6302701;22;20023;-35
2022/09/30 15:27:18;;;;;;;3.45;1.70;;;;;;;19.36;46.73;100338.22;6303585;22;20007;-35
2022/09/30 15:30:22;;;;;;;2.25;1.30;;;;;;;19.28;47.02;100336.88;6274829;22;19999;-35
2022/09/30 15:32:55;;;;;;;2.83;1.95;;;;;;;19.22;47.38;100338.06;6299814;22;20130;-35
2022/09/30 15:35:22;;;;;;;2.83;1.42;;;;;;;19.16;47.66;100331.22;6275608;22;20311;-35
2022/09/30 15:37:48;;;;;;;2.65;1.63;;;;;;;19.13;47.94;100327.81;6275002;22;20427;-35
2022/09/30 15:43:14;;;;;;;2.65;1.42;;;;;;;18.95;48.69;100322.44;6275217;22;20019;-35
2022/09/30 15:45:44;;;;;;;2.63;1.55;;;;;;;18.86;48.93;100323.75;6248024;22;20008;-35
2022/09/30 15:48:12;;;;;;;2.65;1.30;;;;;;;18.79;48.87;100328.56;6274654;22;20341;-35
2022/09/30 15:50:43;;;;;;;1.83;1.50;;;;;;;18.71;49.13;100338.75;6276010;22;20027;-35
2022/09/30 15:53:17;;;;;;;2.60;1.38;;;;;;;18.66;49.59;100340.75;6274708;22;20007;-35
2022/09/30 15:55:44;;;;;;;2.95;1.50;;;;;;;18.59;49.71;100338.41;6275348;22;20031;-35
2022/09/30 15:58:36;;;;;;;3.85;1.75;;;;;;;18.51;49.25;100337.88;6272354;22;20315;-33
2022/09/30 16:01:18;;;;;;;2.35;1.55;;;;;;;18.43;49.83;100337.38;6261118;22;20000;-33
2022/09/30 16:03:49;;;;;;;2.25;1.50;;;;;;;18.32;49.08;100336.13;6275098;22;20000;-33
2022/09/30 16:06:24;;;;;;;2.50;1.70;;;;;;;18.26;49.16;100338.19;6274175;22;20106;-32
2022/09/30 16:08:53;;;;;;;5.32;1.90;;;;;;;18.21;50.06;100343.75;6275303;22;20000;-33
2022/09/30 16:11:24;;;;;;;2.63;1.60;;;;;;;18.14;50.15;100326.31;6274060;22;20000;-33
2022/09/30 16:13:50;;;;;;;3.45;1.85;;;;;;;18.08;50.48;100344.28;6273688;22;20407;-33
2022/09/30 16:16:21;;;;;;;2.50;1.83;;;;;;;18.03;50.55;100345.41;6275444;22;20010;-33
2022/09/30 16:18:47;;;;;;;2.42;1.65;;;;;;;17.97;50.76;100343.06;6273767;22;20004;-33
2022/09/30 16:21:49;;;;;;;3.70;1.70;;;;;;;17.89;50.85;100343.38;6276476;22;20027;-33
2022/09/30 16:24:34;;;;;;;3.17;1.75;;;;;;;17.81;51.00;100341.94;6241145;22;20012;-33
2022/09/30 16:27:29;;;;;;;2.92;1.80;;;;;;;17.74;51.25;100345.81;6274291;22;20006;-33
2022/09/30 16:29:56;;;;;;;2.55;1.65;;;;;;;17.67;51.30;100347.00;6263798;22;20007;-33
2022/09/30 16:32:22;;;;;;;3.67;2.30;;;;;;;17.57;51.13;100349.22;6273587;22;20086;-32
2022/09/30 16:34:48;;;;;;;3.17;2.40;;;;;;;17.53;50.40;100350.28;6273811;22;20077;-32
2022/09/30 16:37:17;;;;;;;3.58;2.40;;;;;;;17.45;49.69;100358.63;6275114;22;20418;-33
2022/09/30 16:39:43;;;;;;;4.18;2.33;;;;;;;17.39;49.22;100345.56;6275458;22;20053;-33
2022/09/30 16:42:12;;;;;;;5.13;3.40;;;;;;;17.34;49.10;100351.06;6275914;22;19999;-33
2022/09/30 16:44:38;;;;;;;3.55;2.67;;;;;;;17.29;49.72;100353.06;6222642;22;20019;-33
2022/09/30 16:47:03;;;;;;;5.93;3.00;;;;;;;17.23;49.28;100353.31;6248079;22;20004;-33
2022/09/30 16:49:33;;;;;;;4.80;3.15;;;;;;;17.16;49.76;100344.72;6274553;22;20007;-33
2022/09/30 16:51:58;;;;;;;5.28;2.97;;;;;;;17.09;49.95;100353.91;6271095;22;20435;-32
2022/09/30 16:54:24;;;;;;;4.10;2.72;;;;;;;17.01;49.95;100352.41;6268489;22;19995;-33
2022/09/30 16:56:49;;;;;;;3.75;2.55;;;;;;;16.94;50.04;100348.25;6270028;22;20045;-32
2022/09/30 16:59:16;;;;;;;4.90;2.40;;;;;;;16.87;50.31;100349.44;6273223;22;20007;-33
2022/09/30 17:01:42;;;;;;;4.80;2.55;;;;;;;16.79;50.23;100347.97;6273452;22;20319;-33
2022/09/30 17:04:15;;;;;;;4.35;2.58;;;;;;;16.72;50.31;100349.13;6274782;22;20007;-33